Time;durP1;ratioP1;P1;durP2;ratioP2;P2;SDS_P1;SDS_P2;PMS_P1;PMS_P2;Temp;Humidity;BMP_temperature;BMP_pressure;BME280_temperature;BME280_humidity;BME280_pressure;Samples;Min_cycle;Max_cycle;Signal;HPM_P1;HPM_P2
2022/12/12 00:02:18;;;;;;;24.70;12.93;;;;;;;1.18;84.77;101011.34;5054691;28;20025;-62
2022/12/12 00:04:44;;;;;;;25.17;13.00;;;;;;;1.15;84.84;101009.47;5054514;28;20021;-63
2022/12/12 00:07:09;;;;;;;23.30;13.02;;;;;;;1.16;84.58;101018.19;5054689;28;20032;-63
2022/12/12 00:09:34;;;;;;;22.55;12.02;;;;;;;1.14;84.67;101012.00;5054505;28;20108;-63
2022/12/12 00:12:00;;;;;;;22.08;12.35;;;;;;;1.12;84.82;101011.03;5054722;28;20408;-63
2022/12/12 00:14:25;;;;;;;24.15;12.00;;;;;;;1.13;84.50;101015.44;5036305;28;20037;-63
2022/12/12 00:16:50;;;;;;;25.90;13.02;;;;;;;1.06;83.87;101016.81;5054371;28;20070;-63
2022/12/12 00:19:16;;;;;;;21.42;12.02;;;;;;;1.00;84.71;101013.91;5054389;28;20064;-63
2022/12/12 00:21:41;;;;;;;23.42;12.52;;;;;;;0.86;84.14;101017.50;5054289;28;20055;-63
2022/12/12 00:24:07;;;;;;;23.73;12.57;;;;;;;0.72;84.86;101014.16;5054007;28;20478;-64
2022/12/12 00:26:33;;;;;;;23.88;12.90;;;;;;;0.62;84.53;101006.69;5054410;28;20021;-63
2022/12/12 00:29:00;;;;;;;21.52;12.75;;;;;;;0.54;85.14;101010.59;5054303;28;20360;-63
2022/12/12 00:31:26;;;;;;;21.77;12.27;;;;;;;0.52;85.73;101010.50;5054079;28;20124;-61
2022/12/12 00:33:52;;;;;;;23.27;12.23;;;;;;;0.51;85.77;101011.31;5054262;28;20025;-62
2022/12/12 00:36:21;;;;;;;26.70;12.98;;;;;;;0.55;85.70;101017.56;5054024;28;20071;-62
2022/12/12 00:38:47;;;;;;;20.95;11.70;;;;;;;0.57;85.54;101021.16;5053955;28;20021;-62
2022/12/12 00:41:12;;;;;;;21.58;11.93;;;;;;;0.57;85.22;101016.84;5053947;28;20098;-62
2022/12/12 00:43:38;;;;;;;24.25;11.95;;;;;;;0.63;85.42;101024.06;5053679;28;20063;-62
2022/12/12 00:46:03;;;;;;;23.02;12.27;;;;;;;0.69;85.89;101027.91;5053525;28;20049;-62
2022/12/12 00:48:29;;;;;;;21.27;11.15;;;;;;;0.73;85.60;101029.84;5053867;28;20438;-62
2022/12/12 00:50:56;;;;;;;23.15;12.00;;;;;;;0.72;85.49;101022.84;5053689;28;20472;-62
2022/12/12 00:53:21;;;;;;;21.85;12.40;;;;;;;0.69;84.81;101014.91;5035697;28;20031;-62
2022/12/12 00:55:57;;;;;;;24.60;12.40;;;;;;;0.65;84.74;101012.06;5053643;28;20100;-61
2022/12/12 00:58:23;;;;;;;22.45;11.50;;;;;;;0.67;85.29;101021.72;5052638;28;20170;-62
2022/12/12 01:00:49;;;;;;;21.10;12.00;;;;;;;0.67;85.05;101026.91;5053531;28;20033;-62
2022/12/12 01:03:15;;;;;;;24.48;12.48;;;;;;;0.65;85.19;101033.75;5053547;28;20060;-62
2022/12/12 01:05:40;;;;;;;25.17;13.25;;;;;;;0.56;84.96;101033.28;5053727;28;20064;-62
2022/12/12 01:08:05;;;;;;;26.38;13.25;;;;;;;0.46;85.16;101028.38;5053474;28;20104;-61
2022/12/12 01:10:31;;;;;;;24.33;12.70;;;;;;;0.35;85.26;101035.59;5053404;28;20036;-62
2022/12/12 01:12:56;;;;;;;23.80;12.07;;;;;;;0.27;85.92;101046.38;5053204;28;20408;-62
2022/12/12 01:15:22;;;;;;;23.98;12.20;;;;;;;0.23;86.21;101048.81;5053317;28;20021;-62
2022/12/12 01:17:47;;;;;;;23.75;12.13;;;;;;;0.15;86.34;101039.69;5053313;28;20040;-62
2022/12/12 01:20:31;;;;;;;24.30;12.75;;;;;;;0.10;86.82;101041.13;5053239;28;20017;-63
2022/12/12 01:22:56;;;;;;;24.30;12.57;;;;;;;0.09;87.12;101054.94;5035422;28;20027;-62
2022/12/12 01:25:22;;;;;;;25.70;13.30;;;;;;;0.05;86.63;101050.38;5052680;28;20115;-62
2022/12/12 01:27:47;;;;;;;25.33;13.27;;;;;;;-0.01;86.30;101057.81;5053144;28;20051;-62
2022/12/12 01:30:15;;;;;;;25.48;13.57;;;;;;;-0.12;86.67;101053.75;5053109;28;20147;-62
2022/12/12 01:32:41;;;;;;;24.10;13.15;;;;;;;-0.21;87.10;101054.13;5053038;28;20107;-63
2022/12/12 01:35:07;;;;;;;26.15;13.85;;;;;;;-0.26;87.69;101056.44;5035341;28;20116;-62
2022/12/12 01:37:36;;;;;;;29.95;14.10;;;;;;;-0.31;87.50;101065.66;5052971;28;20474;-62
2022/12/12 01:40:04;;;;;;;27.63;13.07;;;;;;;-0.30;87.54;101066.53;5052948;28;20060;-62
2022/12/12 01:42:30;;;;;;;26.55;14.23;;;;;;;-0.29;87.98;101066.66;5052629;28;20504;-63
2022/12/12 01:44:56;;;;;;;26.75;13.63;;;;;;;-0.20;87.96;101073.19;5052727;28;20021;-62
2022/12/12 01:47:23;;;;;;;25.63;12.98;;;;;;;-0.13;87.83;101072.69;5052661;28;20132;-63
2022/12/12 01:49:59;;;;;;;25.80;13.52;;;;;;;-0.06;87.37;101059.28;5052859;28;20091;-63
2022/12/12 01:52:31;;;;;;;26.90;13.00;;;;;;;0.03;86.66;101066.69;5052633;28;20051;-63
2022/12/12 01:54:59;;;;;;;22.80;12.68;;;;;;;0.07;86.67;101069.53;5052675;28;20037;-62
2022/12/12 01:57:31;;;;;;;24.15;12.05;;;;;;;0.12;86.62;101073.28;5052651;28;20020;-63
2022/12/12 01:59:58;;;;;;;23.23;12.80;;;;;;;0.14;86.57;101061.28;5052699;28;20083;-62
2022/12/12 02:02:24;;;;;;;24.17;12.68;;;;;;;0.23;86.26;101069.59;5052774;28;20544;-63
2022/12/12 02:04:49;;;;;;;26.27;13.30;;;;;;;0.27;86.12;101081.06;5052442;28;20056;-63
2022/12/12 02:07:16;;;;;;;22.10;12.02;;;;;;;0.27;85.36;101077.56;5052704;28;20021;-62
2022/12/12 02:09:42;;;;;;;23.42;12.48;;;;;;;0.27;85.04;101081.06;5057448;28;20049;-63
2022/12/12 02:12:12;;;;;;;25.40;12.68;;;;;;;0.22;84.68;101086.00;5059320;28;20017;-63
2022/12/12 02:14:40;;;;;;;23.92;12.02;;;;;;;0.17;84.70;101077.06;5059146;28;20083;-62
2022/12/12 02:17:21;;;;;;;20.65;12.07;;;;;;;0.16;84.84;101084.75;5059100;28;20025;-63
2022/12/12 02:19:58;;;;;;;24.40;12.68;;;;;;;0.13;84.49;101092.34;5059239;28;20025;-63
2022/12/12 02:23:13;;;;;;;25.83;12.45;;;;;;;0.14;84.74;101092.47;5059000;28;20382;-63
2022/12/12 02:26:16;;;;;;;21.85;11.73;;;;;;;0.21;85.52;101085.91;5059443;28;20104;-64
2022/12/12 02:29:03;;;;;;;21.48;11.02;;;;;;;0.22;84.72;101083.41;5059092;28;20058;-62
2022/12/12 02:31:39;;;;;;;28.63;13.20;;;;;;;0.17;84.16;101079.66;5059009;28;20033;-63
2022/12/12 02:34:23;;;;;;;24.92;12.95;;;;;;;0.13;84.50;101081.97;5058966;28;20040;-62
2022/12/12 02:37:29;;;;;;;21.95;11.93;;;;;;;0.17;84.68;101090.06;5059116;28;20067;-63
2022/12/12 02:40:18;;;;;;;24.10;12.80;;;;;;;0.18;84.69;101096.13;5059087;28;20032;-62
2022/12/12 02:42:49;;;;;;;24.50;11.95;;;;;;;0.17;84.26;101091.72;5059064;28;20078;-64
2022/12/12 02:45:32;;;;;;;24.60;12.50;;;;;;;0.14;84.08;101084.69;5062661;22;20405;-84
2022/12/12 02:48:06;;;;;;;24.05;12.32;;;;;;;0.01;84.37;101068.31;5059348;28;20056;-87
2022/12/12 02:50:32;;;;;;;26.48;12.52;;;;;;;-0.10;83.92;101053.00;5059662;28;20029;-86
2022/12/12 02:52:59;;;;;;;25.13;13.15;;;;;;;-0.09;84.09;101070.38;5025173;28;20032;-86
2022/12/12 02:55:24;;;;;;;23.83;12.40;;;;;;;-0.16;83.83;101075.16;5041700;28;20036;-86
2022/12/12 02:57:51;;;;;;;23.60;12.23;;;;;;;-0.19;83.84;101085.34;5059633;28;20031;-86
2022/12/12 03:00:18;;;;;;;23.45;12.48;;;;;;;-0.37;84.33;101065.31;5058812;28;20480;-86
2022/12/12 03:09:01;;;;;;;24.15;12.98;;;;;;;-0.52;85.30;101079.97;5062232;28;20059;-86
2022/12/12 03:12:02;;;;;;;23.10;12.25;;;;;;;-0.58;84.96;101087.41;5063761;28;20074;-86
2022/12/12 03:14:47;;;;;;;24.38;13.40;;;;;;;-0.78;85.44;101060.28;5014472;28;20090;-86
2022/12/12 03:17:37;;;;;;;24.60;12.82;;;;;;;-0.64;85.77;101080.16;5056005;28;20048;-86
2022/12/12 03:20:06;;;;;;;23.13;12.13;;;;;;;-0.59;85.40;101078.75;5065662;28;20067;-86
2022/12/12 03:22:43;;;;;;;22.38;11.45;;;;;;;-0.54;85.16;101084.19;5060718;28;20032;-86
2022/12/12 03:25:16;;;;;;;24.35;12.13;;;;;;;-0.53;84.76;101073.88;5063503;28;20029;-86
2022/12/12 03:28:10;;;;;;;22.65;12.27;;;;;;;-0.46;84.35;101082.94;5068072;28;20013;-85
2022/12/12 03:30:42;;;;;;;23.35;12.23;;;;;;;-0.37;84.26;101086.06;5079463;28;20048;-85
2022/12/12 03:33:16;;;;;;;25.30;13.10;;;;;;;-0.31;84.31;101082.94;5079302;28;20017;-86
2022/12/12 03:35:46;;;;;;;22.90;12.18;;;;;;;-0.27;84.34;101088.38;5079637;28;20043;-86
2022/12/12 03:38:35;;;;;;;22.33;11.98;;;;;;;-0.23;83.87;101081.69;5079778;28;20057;-86
2022/12/12 03:41:04;;;;;;;23.98;12.65;;;;;;;-0.45;83.22;101063.06;5078988;28;20028;-85
2022/12/12 03:43:38;;;;;;;24.45;13.15;;;;;;;-0.32;83.19;101086.34;5053550;28;20015;-85
2022/12/12 03:46:30;;;;;;;24.38;12.68;;;;;;;-0.58;82.92;101058.88;5077954;28;20060;-85
2022/12/12 03:49:16;;;;;;;23.13;12.18;;;;;;;-0.60;82.73;101074.34;5079201;28;20040;-86
2022/12/12 03:51:50;;;;;;;22.90;12.27;;;;;;;-0.65;82.78;101077.47;5079922;28;20081;-85
2022/12/12 03:54:25;;;;;;;27.30;11.77;;;;;;;-0.58;83.48;101097.78;5072600;28;20518;-83
2022/12/12 03:56:57;;;;;;;22.48;12.15;;;;;;;-0.60;82.37;101087.34;5038425;28;20040;-85
2022/12/12 03:59:29;;;;;;;22.13;12.20;;;;;;;-0.73;83.36;101086.50;5055927;28;20183;-85
2022/12/12 04:02:01;;;;;;;23.17;11.70;;;;;;;-0.64;83.20;101105.19;5037687;28;20021;-85
2022/12/12 04:04:42;;;;;;;;;;;;;;;-0.53;83.86;101089.47;5055602;28;20032;-83
2022/12/12 04:07:18;;;;;;;21.45;11.23;;;;;;;-0.66;82.67;101067.91;5055177;28;19999;-85
2022/12/12 04:13:06;;;;;;;20.92;11.07;;;;;;;-0.65;81.87;101100.81;5021142;28;20045;-83
2022/12/12 04:15:50;;;;;;;21.63;11.73;;;;;;;-0.70;82.57;101105.75;5036981;28;20619;-85
2022/12/12 04:18:19;;;;;;;24.35;12.52;;;;;;;-0.64;82.69;101102.59;5054855;28;20032;-83
2022/12/12 04:24:15;;;;;;;23.77;11.90;;;;;;;-0.54;82.65;101102.38;5054720;28;20044;-84
2022/12/12 04:26:50;;;;;;;20.33;11.50;;;;;;;-0.61;82.48;101088.13;5054760;28;20025;-84
2022/12/12 04:29:15;;;;;;;23.65;12.75;;;;;;;-0.56;82.42;101107.47;5036732;28;20045;-84
2022/12/12 04:31:57;;;;;;;24.05;12.48;;;;;;;-0.60;81.96;101097.72;5054623;28;20028;-84
2022/12/12 04:34:38;;;;;;;24.00;12.18;;;;;;;-0.52;82.05;101112.00;5054570;28;20032;-84
2022/12/12 04:37:06;;;;;;;21.42;11.57;;;;;;;-0.57;81.43;101110.84;5054444;28;20062;-85
2022/12/12 04:39:36;;;;;;;22.20;11.77;;;;;;;-0.61;80.79;101127.03;5058311;28;20037;-83
2022/12/12 04:42:05;;;;;;;25.05;12.35;;;;;;;-0.65;81.15;101124.16;5068388;28;20036;-84
2022/12/12 04:44:34;;;;;;;21.55;12.15;;;;;;;-0.77;80.83;101120.06;5054481;28;20071;-83
2022/12/12 04:47:01;;;;;;;22.13;11.43;;;;;;;-0.88;80.92;101120.19;5054372;28;20420;-83
2022/12/12 04:49:29;;;;;;;25.63;12.75;;;;;;;-0.87;81.17;101134.97;5054343;28;20124;-84
2022/12/12 04:52:01;;;;;;;23.42;13.20;;;;;;;-1.04;81.47;101110.59;5052982;28;20029;-84
2022/12/12 04:54:38;;;;;;;24.90;12.48;;;;;;;-1.15;81.72;101086.59;5054574;28;20045;-83
2022/12/12 04:57:07;;;;;;;23.35;11.90;;;;;;;-1.08;80.74;101117.28;5054387;28;20045;-84
2022/12/12 04:59:33;;;;;;;24.05;11.77;;;;;;;-1.21;80.47;101116.44;5054254;28;20078;-84
2022/12/12 05:02:21;;;;;;;23.08;11.38;;;;;;;-1.26;81.58;101127.41;5054098;28;20028;-83
2022/12/12 05:04:57;;;;;;;27.75;12.38;;;;;;;-1.34;81.01;101113.06;5053451;28;20090;-85
2022/12/12 05:07:38;;;;;;;23.35;10.85;;;;;;;-1.24;83.41;101130.13;5054300;28;20029;-83
2022/12/12 05:10:10;;;;;;;25.67;12.63;;;;;;;-1.28;82.58;101107.38;5053873;28;20051;-84
2022/12/12 05:13:00;;;;;;;23.70;11.80;;;;;;;-1.23;82.73;101103.38;5053897;28;20029;-84
2022/12/12 05:15:27;;;;;;;26.00;12.50;;;;;;;-1.16;83.00;101100.34;5040901;28;20042;-84
2022/12/12 05:18:06;;;;;;;22.52;12.23;;;;;;;-1.04;82.05;101110.59;5053777;28;20033;-84
2022/12/12 05:20:31;;;;;;;26.50;12.40;;;;;;;-1.02;82.13;101114.19;5053870;28;20086;-84
2022/12/12 05:22:56;;;;;;;22.65;11.70;;;;;;;-0.96;82.76;101116.25;5035934;28;20041;-84
2022/12/12 05:25:22;;;;;;;24.77;12.40;;;;;;;-0.92;82.17;101119.13;5053449;28;20037;-84
2022/12/12 05:27:47;;;;;;;29.00;12.88;;;;;;;-0.96;81.18;101109.34;5053686;28;20492;-84
2022/12/12 05:30:13;;;;;;;23.83;12.45;;;;;;;-1.01;80.81;101118.56;5053738;28;20112;-84
2022/12/12 05:32:39;;;;;;;25.20;12.15;;;;;;;-1.16;80.79;101123.69;5053296;28;20052;-84
2022/12/12 05:35:06;;;;;;;22.27;12.30;;;;;;;-1.26;80.75;101119.63;5035735;28;20044;-84
2022/12/12 05:37:31;;;;;;;23.58;12.68;;;;;;;-1.51;80.18;101093.88;5053118;28;20128;-84
2022/12/12 05:39:57;;;;;;;23.45;12.25;;;;;;;-1.42;80.26;101126.34;5053395;28;20064;-84
2022/12/12 05:42:23;;;;;;;26.17;11.88;;;;;;;-1.73;80.31;101097.59;5035698;28;20157;-84
2022/12/12 05:44:48;;;;;;;24.23;11.80;;;;;;;-1.64;80.84;101126.69;5052301;28;20102;-84
2022/12/12 05:47:13;;;;;;;22.73;12.25;;;;;;;-1.58;81.93;101134.88;5053221;28;20473;-84
2022/12/12 05:49:39;;;;;;;26.30;12.23;;;;;;;-1.51;81.41;101129.25;5053509;28;20033;-84
2022/12/12 05:52:04;;;;;;;26.85;12.07;;;;;;;-1.57;81.27;101109.03;5035225;28;20408;-84
2022/12/12 05:54:30;;;;;;;23.27;12.00;;;;;;;-1.57;80.90;101108.16;5053021;28;20388;-84
2022/12/12 05:56:55;;;;;;;29.15;12.25;;;;;;;-1.45;80.78;101140.03;5035393;28;20036;-84
2022/12/12 05:59:20;;;;;;;24.88;11.65;;;;;;;-1.72;81.21;101096.81;5053377;28;20166;-85
2022/12/12 06:01:46;;;;;;;21.45;11.32;;;;;;;-1.72;80.75;101120.13;5035824;28;20400;-83
2022/12/12 06:04:11;;;;;;;28.67;12.50;;;;;;;-1.70;80.94;101134.06;5066115;28;20029;-84
2022/12/12 06:06:37;;;;;;;25.83;12.15;;;;;;;-1.78;81.17;101130.97;5036375;28;20037;-84
2022/12/12 06:09:02;;;;;;;25.40;12.15;;;;;;;-1.85;81.01;101136.56;5035178;28;20040;-84
2022/12/12 06:11:27;;;;;;;32.75;12.85;;;;;;;-2.11;81.54;101102.09;5053000;28;20135;-84
2022/12/12 06:13:53;;;;;;;26.33;12.07;;;;;;;-1.95;81.35;101141.94;5052804;28;20028;-85
2022/12/12 06:16:18;;;;;;;28.15;13.18;;;;;;;-2.04;82.29;101125.00;5035145;28;20052;-85
2022/12/12 06:18:50;;;;;;;26.17;12.32;;;;;;;-1.98;83.21;101118.44;5053725;28;20025;-86
2022/12/12 06:21:15;;;;;;;24.13;12.05;;;;;;;-1.69;83.17;101146.22;5053160;28;20036;-85
2022/12/12 06:23:42;;;;;;;23.40;11.73;;;;;;;-1.59;83.17;101146.00;5052960;28;20025;-85
2022/12/12 06:26:09;;;;;;;26.42;12.25;;;;;;;-1.50;82.13;101154.34;5035228;28;20025;-85
2022/12/12 06:28:35;;;;;;;25.40;12.05;;;;;;;-1.62;81.70;101125.09;5035611;28;20048;-85
2022/12/12 06:31:00;;;;;;;22.70;11.50;;;;;;;-1.42;81.13;101154.84;5053074;28;20029;-84
2022/12/12 06:33:26;;;;;;;22.45;11.45;;;;;;;-1.45;79.55;101155.56;5052618;28;20044;-84
2022/12/12 06:35:59;;;;;;;24.02;11.50;;;;;;;-1.48;80.41;101150.19;5034938;28;20052;-85
2022/12/12 06:38:25;;;;;;;24.67;11.77;;;;;;;-1.54;79.39;101155.88;5052751;28;20029;-83
2022/12/12 06:40:51;;;;;;;20.95;10.88;;;;;;;-1.63;78.60;101146.59;5052771;28;20033;-83
2022/12/12 06:43:16;;;;;;;19.85;10.52;;;;;;;-1.95;79.20;101136.75;5034785;28;20025;-86
2022/12/12 06:45:41;;;;;;;23.30;11.70;;;;;;;-1.94;79.05;101156.69;5034782;28;20053;-83
2022/12/12 06:48:07;;;;;;;23.02;11.50;;;;;;;-2.04;80.20;101150.00;5034789;28;20128;-83
2022/12/12 06:50:32;;;;;;;25.15;10.65;;;;;;;-1.99;80.77;101146.03;5052899;28;20389;-84
2022/12/12 06:52:57;;;;;;;26.42;11.38;;;;;;;-1.74;80.66;101166.66;5052824;28;20025;-84
2022/12/12 06:55:23;;;;;;;24.42;11.30;;;;;;;-1.59;81.15;101177.09;5052895;28;20400;-84
2022/12/12 06:57:48;;;;;;;23.80;11.65;;;;;;;-1.48;80.84;101175.22;5038333;28;20068;-84
2022/12/12 07:00:14;;;;;;;22.73;11.38;;;;;;;-1.54;80.26;101149.81;5056723;28;20099;-83
2022/12/12 07:02:40;;;;;;;24.77;11.70;;;;;;;-1.56;79.54;101148.81;5038838;28;20033;-83
2022/12/12 07:05:06;;;;;;;31.98;12.88;;;;;;;-1.42;79.39;101170.41;5038178;28;20095;-84
2022/12/12 07:07:32;;;;;;;33.13;13.90;;;;;;;-1.45;79.21;101171.13;5056287;28;20115;-85
2022/12/12 07:09:58;;;;;;;40.42;15.02;;;;;;;-1.39;78.94;101178.38;5038361;28;20124;-85
2022/12/12 07:12:23;;;;;;;28.58;13.25;;;;;;;-1.45;78.68;101178.00;5038678;28;20055;-84
2022/12/12 07:14:49;;;;;;;29.00;13.45;;;;;;;-1.53;78.35;101188.75;5055902;28;20110;-85
2022/12/12 07:17:14;;;;;;;27.42;12.57;;;;;;;-1.72;78.15;101172.81;5056081;28;20087;-86
2022/12/12 07:19:39;;;;;;;27.80;11.90;;;;;;;-1.78;78.85;101194.03;5038312;28;20087;-86
2022/12/12 07:22:05;;;;;;;25.30;11.98;;;;;;;-1.83;79.06;101198.03;5055729;28;20037;-86
2022/12/12 07:24:30;;;;;;;25.77;12.07;;;;;;;-1.83;80.47;101197.13;5024229;28;20039;-86
2022/12/12 07:26:56;;;;;;;27.13;12.02;;;;;;;-1.79;79.82;101200.03;5071077;28;20491;-86
2022/12/12 07:29:21;;;;;;;24.95;12.07;;;;;;;-1.69;80.10;101205.81;5057755;28;20071;-88
2022/12/12 07:31:46;;;;;;;24.90;11.10;;;;;;;-1.83;80.05;101185.09;5055742;28;20029;-84
2022/12/12 07:34:12;;;;;;;36.78;16.75;;;;;;;-1.63;79.83;101207.09;5004939;28;20033;-87
2022/12/12 07:36:37;;;;;;;28.95;12.50;;;;;;;-1.78;78.97;101186.28;5055430;28;20029;-86
2022/12/12 07:39:03;;;;;;;33.78;15.60;;;;;;;-1.70;79.78;101204.91;5037801;28;20043;-85
2022/12/12 07:41:28;;;;;;;27.23;12.93;;;;;;;-1.72;79.44;101214.25;5055278;28;20466;-85
2022/12/12 07:43:54;;;;;;;26.98;12.63;;;;;;;-1.87;79.21;101188.25;5055448;28;20037;-86
2022/12/12 07:46:23;;;;;;;30.27;11.75;;;;;;;-1.78;79.06;101212.19;5053709;28;20056;-85
2022/12/12 07:48:48;;;;;;;26.35;11.38;;;;;;;-1.83;78.29;101198.03;5037133;28;20444;-86
2022/12/12 07:51:14;;;;;;;29.20;11.98;;;;;;;-1.83;78.40;101202.31;5055106;28;20037;-85
2022/12/12 07:53:40;;;;;;;29.70;13.07;;;;;;;-1.86;78.60;101200.41;5055053;28;20064;-84
2022/12/12 07:56:07;;;;;;;25.00;11.32;;;;;;;-1.90;78.39;101198.41;5055169;28;20090;-85
2022/12/12 07:58:33;;;;;;;27.67;11.88;;;;;;;-1.85;78.55;101216.84;5037256;28;20040;-85
2022/12/12 08:00:59;;;;;;;26.45;12.02;;;;;;;-1.91;78.08;101206.97;5054738;28;20032;-85
2022/12/12 08:03:24;;;;;;;27.25;12.18;;;;;;;-1.97;78.00;101211.78;5039408;28;20487;-85
2022/12/12 08:05:50;;;;;;;26.70;11.70;;;;;;;-1.94;78.39;101224.91;5054382;28;20477;-85
2022/12/12 08:08:15;;;;;;;28.75;11.88;;;;;;;-1.94;78.92;101227.50;5037483;28;20029;-86
2022/12/12 08:10:40;;;;;;;25.20;12.20;;;;;;;-1.84;80.20;101229.00;5054866;28;20138;-85
2022/12/12 08:13:06;;;;;;;26.50;12.35;;;;;;;-1.68;79.77;101226.63;5037448;28;20090;-85
2022/12/12 08:15:32;;;;;;;25.80;11.65;;;;;;;-1.54;79.14;101235.31;5037105;28;20029;-85
2022/12/12 08:17:58;;;;;;;28.30;12.80;;;;;;;-1.34;80.42;101231.41;5054414;28;20036;-85
2022/12/12 08:20:23;;;;;;;27.95;12.38;;;;;;;-1.15;79.61;101229.22;5054278;28;20033;-85
2022/12/12 08:22:48;;;;;;;30.77;12.77;;;;;;;-0.92;79.69;101237.53;5055123;28;20041;-86
2022/12/12 08:25:14;;;;;;;25.38;12.68;;;;;;;-0.61;80.85;101241.22;5036607;28;20037;-86
2022/12/12 08:27:39;;;;;;;26.52;12.32;;;;;;;-0.45;78.89;101218.81;5036914;28;20407;-86
2022/12/12 08:30:05;;;;;;;26.70;12.45;;;;;;;-0.01;78.78;101247.44;5054464;28;20468;-86
2022/12/12 08:32:31;;;;;;;28.10;13.23;;;;;;;0.26;78.22;101235.19;5054186;28;20033;-85
2022/12/12 08:34:57;;;;;;;28.15;12.82;;;;;;;0.60;77.97;101237.13;5053964;28;20057;-85
2022/12/12 08:37:23;;;;;;;26.73;12.20;;;;;;;0.81;76.88;101233.13;5054123;28;20391;-85
2022/12/12 08:39:49;;;;;;;25.90;12.75;;;;;;;0.97;74.97;101234.88;5054038;28;20377;-86
2022/12/12 08:42:14;;;;;;;27.73;13.02;;;;;;;1.08;74.58;101238.09;5036166;28;20510;-86
2022/12/12 08:44:40;;;;;;;34.20;16.85;;;;;;;1.07;73.28;101237.19;5035981;28;20068;-85
2022/12/12 08:47:05;;;;;;;44.33;21.15;;;;;;;1.19;72.97;101244.75;5058499;28;20029;-85
2022/12/12 08:49:31;;;;;;;33.80;15.18;;;;;;;1.41;75.42;101237.31;5066169;28;20040;-84
2022/12/12 08:51:57;;;;;;;30.23;13.15;;;;;;;1.76;75.04;101227.88;5056491;28;20029;-85
2022/12/12 08:54:22;;;;;;;29.35;13.32;;;;;;;2.21;73.69;101236.25;5036225;28;20033;-85
2022/12/12 08:56:48;;;;;;;27.90;12.40;;;;;;;2.57;73.22;101237.19;5053743;28;20178;-84
2022/12/12 08:59:13;;;;;;;28.75;12.93;;;;;;;2.93;72.55;101237.19;5036084;28;20108;-84
2022/12/12 09:01:39;;;;;;;24.45;12.00;;;;;;;3.12;70.64;101232.00;5053669;28;20500;-85
2022/12/12 09:04:04;;;;;;;27.02;13.40;;;;;;;3.41;70.24;101243.78;5052395;28;20033;-84
2022/12/12 09:06:30;;;;;;;27.83;13.38;;;;;;;3.53;69.41;101232.13;5036139;28;20116;-85
2022/12/12 09:08:56;;;;;;;26.33;12.23;;;;;;;3.76;68.85;101224.47;5036109;28;20036;-85
2022/12/12 09:11:22;;;;;;;26.02;12.88;;;;;;;3.98;67.67;101212.34;5053828;28;20031;-85
2022/12/12 09:13:48;;;;;;;25.70;12.25;;;;;;;4.35;65.75;101253.16;5035783;28;20086;-86
2022/12/12 09:16:13;;;;;;;27.25;13.45;;;;;;;4.54;65.97;101245.25;5053543;28;20115;-85
2022/12/12 09:18:39;;;;;;;28.75;12.32;;;;;;;4.77;65.95;101247.06;5053029;28;20389;-85
2022/12/12 09:21:05;;;;;;;25.77;12.23;;;;;;;4.99;65.28;101243.59;5035722;28;20498;-84
2022/12/12 09:23:31;;;;;;;27.50;13.35;;;;;;;5.28;63.88;101257.81;5053604;28;20029;-85
2022/12/12 09:25:57;;;;;;;27.20;13.07;;;;;;;5.40;63.72;101248.66;5052779;28;20116;-86
2022/12/12 09:28:24;;;;;;;24.80;12.35;;;;;;;5.62;62.72;101247.75;5053208;28;20176;-87
2022/12/12 09:30:50;;;;;;;28.67;12.25;;;;;;;5.61;60.45;101241.59;5053336;28;20452;-87
2022/12/12 09:33:17;;;;;;;26.98;13.07;;;;;;;5.76;61.33;101257.00;5035239;28;20524;-87
2022/12/12 09:35:42;;;;;;;24.65;12.38;;;;;;;5.83;61.24;101248.53;5052886;28;20112;-87
2022/12/12 09:38:08;;;;;;;24.80;11.82;;;;;;;5.75;59.98;101235.13;5053052;28;20461;-86
2022/12/12 09:40:46;;;;;;;27.27;11.73;;;;;;;5.78;60.57;101244.81;5052842;28;20040;-86
2022/12/12 09:43:18;;;;;;;23.10;12.13;;;;;;;6.00;61.46;101241.31;5053045;28;20453;-86
2022/12/12 09:45:44;;;;;;;25.02;12.13;;;;;;;6.14;59.47;101239.16;5034967;28;20048;-86
2022/12/12 09:48:15;;;;;;;25.13;12.77;;;;;;;6.22;58.99;101230.72;5052752;28;20033;-86
2022/12/12 09:50:46;;;;;;;25.50;11.73;;;;;;;6.36;58.84;101209.28;5035100;28;20091;-85
2022/12/12 09:53:16;;;;;;;27.93;12.13;;;;;;;6.45;57.61;101235.84;5052597;28;20028;-85
2022/12/12 09:55:59;;;;;;;25.17;11.40;;;;;;;6.54;60.16;101238.78;5052535;28;20039;-85
2022/12/12 09:58:32;;;;;;;25.60;11.65;;;;;;;6.21;56.31;101186.94;5052591;28;20057;-85
2022/12/12 10:01:21;;;;;;;27.00;12.15;;;;;;;6.50;58.40;101226.38;5052749;28;20033;-85
2022/12/12 10:03:49;;;;;;;25.17;10.90;;;;;;;6.63;56.74;101227.69;5026575;28;20067;-85
2022/12/12 10:06:17;;;;;;;22.40;11.25;;;;;;;6.44;56.15;101198.19;5052689;28;20075;-86
2022/12/12 10:09:04;;;;;;;24.75;11.73;;;;;;;6.43;55.91;101232.28;5054837;28;20078;-85
2022/12/12 10:11:56;;;;;;;22.52;10.65;;;;;;;6.51;57.75;101226.44;5039982;28;20139;-85
2022/12/12 10:14:33;;;;;;;20.08;10.77;;;;;;;6.71;56.98;101231.44;5052076;28;20326;-85
2022/12/12 10:17:00;;;;;;;22.58;10.05;;;;;;;6.84;53.72;101230.09;5052391;28;20384;-85
2022/12/12 10:19:29;;;;;;;20.08;10.15;;;;;;;6.79;54.89;101216.84;5052401;28;20029;-85
2022/12/12 10:22:03;;;;;;;26.58;11.00;;;;;;;7.00;55.91;101214.88;5052337;28;20032;-85
2022/12/12 10:24:50;;;;;;;20.25;9.90;;;;;;;7.24;54.69;101221.75;5052474;28;20104;-85
2022/12/12 10:27:16;;;;;;;24.52;10.60;;;;;;;7.32;54.57;101220.22;5052130;28;20041;-85
2022/12/12 10:29:48;;;;;;;20.25;10.38;;;;;;;7.03;54.41;101208.84;5053441;28;20031;-85
2022/12/12 10:32:38;;;;;;;21.75;10.63;;;;;;;6.80;56.95;101226.50;5038245;28;20095;-85
2022/12/12 10:35:27;;;;;;;19.67;9.70;;;;;;;6.69;55.19;101234.03;5056685;28;20029;-85
2022/12/12 10:37:55;;;;;;;21.27;9.90;;;;;;;6.73;55.27;101235.03;5056145;28;20055;-85
2022/12/12 10:40:50;;;;;;;21.52;9.63;;;;;;;6.83;56.56;101223.97;5056231;28;20036;-85
2022/12/12 10:43:32;;;;;;;21.88;10.38;;;;;;;6.97;56.43;101216.50;5012902;28;20052;-85
2022/12/12 10:46:16;;;;;;;;;;;;;;;7.22;59.25;101215.53;5056594;28;20114;-85
2022/12/12 10:48:43;;;;;;;19.60;10.02;;;;;;;7.50;54.08;101204.13;5056084;28;19913;-85
2022/12/12 10:51:12;;;;;;;19.50;10.07;;;;;;;7.66;53.78;101190.53;5055911;28;20037;-85
2022/12/12 10:53:41;;;;;;;25.20;10.10;;;;;;;7.76;53.67;101182.06;5056085;28;20031;-85
2022/12/12 10:56:18;;;;;;;20.50;10.13;;;;;;;7.99;52.29;101190.56;5021597;28;20140;-85
2022/12/12 10:58:52;;;;;;;19.48;9.40;;;;;;;7.94;52.52;101172.88;5055714;28;20041;-85
2022/12/12 11:01:34;;;;;;;21.38;10.18;;;;;;;8.11;51.04;101200.53;5055973;28;20029;-85
2022/12/12 11:04:01;;;;;;;20.13;9.50;;;;;;;8.09;49.96;101156.59;5056117;28;20021;-85
2022/12/12 11:06:30;;;;;;;19.60;9.93;;;;;;;8.26;50.73;101198.31;5055213;28;20477;-85
2022/12/12 11:08:58;;;;;;;18.13;8.95;;;;;;;7.98;49.21;101187.91;5055715;28;20029;-84
2022/12/12 11:11:26;;;;;;;21.05;10.27;;;;;;;7.51;49.54;101175.22;5055749;28;20538;-86
2022/12/12 11:13:59;;;;;;;19.00;10.07;;;;;;;7.66;50.49;101189.63;5038231;28;20025;-85
2022/12/12 11:16:29;;;;;;;;;;;;;;;8.00;55.16;101196.72;5055996;28;20083;-88
2022/12/12 11:19:06;;;;;;;20.38;9.57;;;;;;;7.99;50.87;101182.66;5056142;28;20011;-83
2022/12/12 11:21:35;;;;;;;23.35;10.05;;;;;;;8.13;50.35;101158.44;5056117;28;20032;-85
2022/12/12 11:24:10;;;;;;;21.33;10.10;;;;;;;8.32;49.82;101183.53;5055805;28;20461;-86
2022/12/12 11:26:56;;;;;;;23.25;10.13;;;;;;;8.68;51.65;101187.06;5055366;28;20096;-84
2022/12/12 11:29:43;;;;;;;21.00;10.77;;;;;;;8.52;49.80;101156.88;5037261;28;20469;-84
2022/12/12 11:32:32;;;;;;;18.40;9.40;;;;;;;8.62;47.53;101186.06;5040087;28;20469;-83
2022/12/12 11:35:00;;;;;;;25.60;9.65;;;;;;;8.98;48.83;101189.53;5056081;28;20029;-83
2022/12/12 11:37:52;;;;;;;19.05;8.82;;;;;;;9.33;47.43;101172.69;5037379;28;20457;-83
2022/12/12 11:40:33;;;;;;;18.17;8.82;;;;;;;8.93;47.24;101161.31;5054072;28;20079;-82
2022/12/12 11:43:17;;;;;;;20.02;9.38;;;;;;;9.18;47.62;101178.56;5054279;28;20107;-83